createdAt,value
2022-11-08T00:00:03.363Z,3.70
2022-11-08T00:01:03.346Z,3.68
2022-11-08T00:02:03.468Z,3.65
2022-11-08T00:03:03.399Z,3.63
2022-11-08T00:04:03.308Z,3.60
2022-11-08T00:05:03.295Z,3.60
2022-11-08T00:06:03.282Z,3.62
2022-11-08T00:07:03.269Z,3.60
2022-11-08T00:08:03.259Z,3.63
2022-11-08T00:09:03.243Z,3.65
2022-11-08T00:10:03.227Z,3.65
2022-11-08T00:11:03.211Z,3.68
2022-11-08T00:12:03.200Z,3.70
2022-11-08T00:13:03.212Z,3.74
2022-11-08T00:14:03.179Z,3.73
2022-11-08T00:15:03.167Z,3.70
2022-11-08T00:16:03.146Z,3.73
2022-11-08T00:17:03.144Z,3.70
2022-11-08T00:18:03.124Z,3.73
2022-11-08T00:19:03.115Z,3.70
2022-11-08T00:20:03.101Z,3.70
2022-11-08T00:21:03.092Z,3.69
2022-11-08T00:22:03.074Z,3.68
2022-11-08T00:23:03.074Z,3.66
2022-11-08T00:24:03.062Z,3.63
2022-11-08T00:25:03.038Z,3.66
2022-11-08T00:26:03.027Z,3.66
2022-11-08T00:27:03.008Z,3.68
2022-11-08T00:28:02.998Z,3.68
2022-11-08T00:29:03.005Z,3.66
2022-11-08T00:30:02.968Z,3.62
2022-11-08T00:31:02.966Z,3.60
2022-11-08T00:32:02.943Z,3.60
2022-11-08T00:33:02.934Z,3.60
2022-11-08T00:34:02.919Z,3.60
2022-11-08T00:35:02.910Z,3.59
2022-11-08T00:36:02.892Z,3.58
2022-11-08T00:37:02.883Z,3.60
2022-11-08T00:38:02.866Z,3.60
2022-11-08T00:39:02.854Z,3.58
2022-11-08T00:40:02.850Z,3.53
2022-11-08T00:41:02.832Z,3.47
2022-11-08T00:42:02.816Z,3.41
2022-11-08T00:43:02.815Z,3.44
2022-11-08T00:44:02.791Z,3.47
2022-11-08T00:45:02.802Z,3.47
2022-11-08T00:46:02.761Z,3.45
2022-11-08T00:47:02.797Z,3.42
2022-11-08T00:48:02.744Z,3.40
2022-11-08T00:49:02.725Z,3.42
2022-11-08T00:50:02.713Z,3.41
2022-11-08T00:51:02.711Z,3.37
2022-11-08T00:52:02.691Z,3.31
2022-11-08T00:53:02.681Z,3.28
2022-11-08T00:54:02.661Z,3.26
2022-11-08T00:55:02.650Z,3.25
2022-11-08T00:56:02.641Z,3.23
2022-11-08T00:57:02.625Z,3.23
2022-11-08T00:58:02.612Z,3.23
2022-11-08T00:59:02.598Z,3.21
2022-11-08T01:00:02.583Z,3.21
2022-11-08T01:01:02.675Z,3.25
2022-11-08T01:02:02.738Z,3.31
2022-11-08T01:03:02.545Z,3.40
2022-11-08T01:04:02.531Z,3.42
2022-11-08T01:05:02.522Z,3.40
2022-11-08T01:06:02.505Z,3.40
2022-11-08T01:07:02.495Z,3.40
2022-11-08T01:08:02.480Z,3.36
2022-11-08T01:09:02.472Z,3.32
2022-11-08T01:10:02.457Z,3.31
2022-11-08T01:11:02.441Z,3.26
2022-11-08T01:12:02.432Z,3.25
2022-11-08T01:13:02.426Z,3.18
2022-11-08T01:14:02.406Z,3.21
2022-11-08T01:15:02.451Z,3.21
2022-11-08T01:16:02.377Z,3.18
2022-11-08T01:17:02.402Z,3.11
2022-11-08T01:18:02.355Z,3.08
2022-11-08T01:19:02.338Z,3.07
2022-11-08T01:20:02.327Z,3.04
2022-11-08T01:21:02.315Z,3.05
2022-11-08T01:22:02.302Z,3.03
2022-11-08T01:23:02.289Z,3.04
2022-11-08T01:24:02.279Z,3.04
2022-11-08T01:25:02.265Z,3.01
2022-11-08T01:26:02.251Z,3.01
2022-11-08T01:27:02.238Z,2.98
2022-11-08T01:28:02.225Z,2.98
2022-11-08T01:29:02.211Z,3.04
2022-11-08T01:30:02.206Z,3.07
2022-11-08T01:31:02.199Z,3.03
2022-11-08T01:32:02.174Z,3.01
2022-11-08T01:33:02.188Z,3.00
2022-11-08T01:34:02.159Z,3.03
2022-11-08T01:35:02.143Z,3.03
2022-11-08T01:36:02.125Z,3.01
2022-11-08T01:37:02.116Z,2.95
2022-11-08T01:38:02.096Z,2.92
2022-11-08T01:39:02.087Z,2.87
2022-11-08T01:40:02.082Z,2.90
2022-11-08T01:41:02.061Z,2.90
2022-11-08T01:42:02.052Z,2.86
2022-11-08T01:43:02.031Z,2.90
2022-11-08T01:44:02.024Z,2.93
2022-11-08T01:45:02.054Z,2.97
2022-11-08T01:46:01.998Z,2.93
2022-11-08T01:47:01.981Z,2.90
2022-11-08T01:48:01.976Z,2.86
2022-11-08T01:49:01.983Z,2.86
2022-11-08T01:50:01.950Z,2.87
2022-11-08T01:51:01.931Z,2.90
2022-11-08T01:52:01.919Z,2.89
2022-11-08T01:53:01.911Z,2.89
2022-11-08T01:54:01.896Z,2.89
2022-11-08T01:55:01.881Z,2.92
2022-11-08T01:56:01.868Z,2.98
2022-11-08T01:57:01.856Z,3.00
2022-11-08T01:58:01.843Z,3.01
2022-11-08T01:59:01.834Z,2.92
2022-11-08T02:00:01.839Z,2.86
2022-11-08T02:01:01.936Z,2.80
2022-11-08T02:02:01.955Z,2.74
2022-11-08T02:03:01.790Z,2.69
2022-11-08T02:04:01.769Z,2.67
2022-11-08T02:05:01.780Z,2.65
2022-11-08T02:06:01.745Z,2.68
2022-11-08T02:07:01.727Z,2.65
2022-11-08T02:08:01.715Z,2.61
2022-11-08T02:09:01.709Z,2.61
2022-11-08T02:10:01.689Z,2.56
2022-11-08T02:11:01.675Z,2.46
2022-11-08T02:12:01.665Z,2.38
2022-11-08T02:13:05.069Z,2.38
2022-11-08T02:14:01.640Z,2.39
2022-11-08T02:15:01.629Z,2.42
2022-11-08T02:16:01.610Z,2.44
2022-11-08T02:17:01.599Z,2.50
2022-11-08T02:18:01.593Z,2.56
2022-11-08T02:19:01.576Z,2.57
2022-11-08T02:20:01.567Z,2.60
2022-11-08T02:21:01.574Z,2.53
2022-11-08T02:22:01.537Z,2.50
2022-11-08T02:23:01.519Z,2.47
2022-11-08T02:24:01.539Z,2.46
2022-11-08T02:25:01.495Z,2.46
2022-11-08T02:26:01.486Z,2.44
2022-11-08T02:27:01.476Z,2.42
2022-11-08T02:28:01.460Z,2.31
2022-11-08T02:29:01.447Z,2.22
2022-11-08T02:30:01.434Z,2.24
2022-11-08T02:31:01.420Z,2.24
2022-11-08T02:32:01.407Z,2.28
2022-11-08T02:33:01.401Z,2.26
2022-11-08T02:34:01.384Z,2.25
2022-11-08T02:35:01.370Z,2.28
2022-11-08T02:36:01.363Z,2.28
2022-11-08T02:37:01.378Z,2.28
2022-11-08T02:38:01.335Z,2.20
2022-11-08T02:39:01.325Z,2.14
2022-11-08T02:40:01.342Z,2.07
2022-11-08T02:41:01.294Z,2.06
2022-11-08T02:42:01.282Z,2.02
2022-11-08T02:43:01.270Z,2.02
2022-11-08T02:44:01.258Z,2.07
2022-11-08T02:45:01.244Z,2.07
2022-11-08T02:46:01.235Z,2.04
2022-11-08T02:47:01.217Z,1.99
2022-11-08T02:48:01.212Z,1.97
2022-11-08T02:49:01.193Z,2.04
2022-11-08T02:50:01.181Z,2.10
2022-11-08T02:51:01.171Z,2.07
2022-11-08T02:52:01.159Z,2.10
2022-11-08T02:53:01.163Z,2.11
2022-11-08T02:54:01.136Z,2.15
2022-11-08T02:55:01.121Z,2.20
2022-11-08T02:56:01.104Z,2.24
2022-11-08T02:57:01.096Z,2.25
2022-11-08T02:58:01.078Z,2.26
2022-11-08T02:59:01.071Z,2.26
2022-11-08T03:00:01.088Z,2.25
2022-11-08T03:01:01.192Z,2.24
2022-11-08T03:02:01.239Z,2.17
2022-11-08T03:03:01.022Z,2.13
2022-11-08T03:04:01.004Z,2.17
2022-11-08T03:05:00.988Z,2.25
2022-11-08T03:06:00.977Z,2.25
2022-11-08T03:07:00.962Z,2.26
2022-11-08T03:08:00.949Z,2.29
2022-11-08T03:09:00.961Z,2.32
2022-11-08T03:10:00.927Z,2.39
2022-11-08T03:11:00.910Z,2.39
2022-11-08T03:12:00.900Z,2.39
2022-11-08T03:13:00.898Z,2.39
2022-11-08T03:14:00.871Z,2.39
2022-11-08T03:15:00.860Z,2.33
2022-11-08T03:16:00.849Z,2.29
2022-11-08T03:17:00.836Z,2.22
2022-11-08T03:18:00.824Z,2.20
2022-11-08T03:19:00.807Z,2.18
2022-11-08T03:20:00.798Z,2.15
2022-11-08T03:21:00.780Z,2.07
2022-11-08T03:22:00.774Z,2.07
2022-11-08T03:23:00.818Z,2.04
2022-11-08T03:24:00.746Z,2.00
2022-11-08T03:25:00.791Z,1.97
2022-11-08T03:26:00.718Z,1.97
2022-11-08T03:27:00.704Z,1.97
2022-11-08T03:28:00.693Z,2.02
2022-11-08T03:29:00.682Z,2.06
2022-11-08T03:30:00.664Z,2.06
2022-11-08T03:31:00.658Z,2.02
2022-11-08T03:32:00.641Z,2.04
2022-11-08T03:33:00.627Z,2.06
2022-11-08T03:34:00.615Z,2.06
2022-11-08T03:35:00.601Z,2.08
2022-11-08T03:36:00.588Z,2.07
2022-11-08T03:37:00.572Z,2.11
2022-11-08T03:38:00.564Z,2.08
2022-11-08T03:39:00.557Z,2.00
2022-11-08T03:40:00.536Z,1.99
2022-11-08T03:41:00.550Z,1.99
2022-11-08T03:42:00.511Z,1.97
2022-11-08T03:43:00.498Z,1.95
2022-11-08T03:44:00.492Z,1.97
2022-11-08T03:45:00.473Z,1.99
2022-11-08T03:46:00.457Z,1.94
2022-11-08T03:47:00.447Z,1.85
2022-11-08T03:48:00.433Z,1.87
2022-11-08T03:49:00.423Z,1.80
2022-11-08T03:50:00.408Z,1.77
2022-11-08T03:51:00.397Z,1.73
2022-11-08T03:52:00.384Z,1.67
2022-11-08T03:53:00.370Z,1.62
2022-11-08T03:54:00.375Z,1.66
2022-11-08T03:55:00.348Z,1.63
2022-11-08T03:56:00.328Z,1.66
2022-11-08T03:57:00.355Z,1.63
2022-11-08T03:58:00.305Z,1.63
2022-11-08T03:59:00.290Z,1.58
2022-11-08T04:00:00.285Z,1.58
2022-11-08T04:01:00.343Z,1.58
2022-11-08T04:02:00.458Z,1.58
2022-11-08T04:03:00.239Z,1.60
2022-11-08T04:04:00.229Z,1.60
2022-11-08T04:05:00.224Z,1.60
2022-11-08T04:06:00.202Z,1.56
2022-11-08T04:07:00.189Z,1.58
2022-11-08T04:08:00.178Z,1.55
2022-11-08T04:09:00.162Z,1.56
2022-11-08T04:10:00.159Z,1.55
2022-11-08T04:11:00.138Z,1.56
2022-11-08T04:12:00.124Z,1.55
2022-11-08T04:13:00.270Z,1.56
2022-11-08T04:14:00.098Z,1.59
2022-11-08T04:15:00.083Z,1.60
2022-11-08T04:16:00.158Z,1.60
2022-11-08T04:17:00.067Z,1.63
2022-11-08T04:18:00.046Z,1.68
2022-11-08T04:19:00.036Z,1.74
2022-11-08T04:20:00.018Z,1.77
2022-11-08T04:21:00.004Z,1.76
2022-11-08T04:21:59.994Z,1.73
2022-11-08T04:22:59.978Z,1.78
2022-11-08T04:23:59.962Z,1.80
2022-11-08T04:24:59.949Z,1.76
2022-11-08T04:25:59.940Z,1.74
2022-11-08T04:26:59.922Z,1.73
2022-11-08T04:27:59.911Z,1.74
2022-11-08T04:28:59.923Z,1.76
2022-11-08T04:29:59.883Z,1.74
2022-11-08T04:30:59.869Z,1.80
2022-11-08T04:31:59.857Z,1.87
2022-11-08T04:32:59.844Z,1.92
2022-11-08T04:33:59.829Z,1.99
2022-11-08T04:34:59.819Z,1.97
2022-11-08T04:35:59.801Z,1.97
2022-11-08T04:36:59.793Z,1.95
2022-11-08T04:37:59.778Z,1.99
2022-11-08T04:38:59.770Z,2.04
2022-11-08T04:39:59.750Z,2.08
2022-11-08T04:40:59.740Z,2.10
2022-11-08T04:42:02.332Z,2.07
2022-11-08T04:42:59.714Z,2.06
2022-11-08T04:43:59.710Z,2.04
2022-11-08T04:44:59.707Z,2.02
2022-11-08T04:45:59.677Z,2.00
2022-11-08T04:46:59.663Z,1.92
2022-11-08T04:47:59.645Z,1.92
2022-11-08T04:48:59.631Z,1.91
2022-11-08T04:49:59.620Z,1.92
2022-11-08T04:50:59.605Z,1.92
2022-11-08T04:51:59.593Z,1.91
2022-11-08T04:52:59.582Z,1.89
2022-11-08T04:53:59.573Z,1.88
2022-11-08T04:54:59.553Z,1.87
2022-11-08T04:55:59.538Z,1.87
2022-11-08T04:56:59.525Z,1.91
2022-11-08T04:57:59.519Z,1.91
2022-11-08T04:58:59.500Z,1.91
2022-11-08T04:59:59.488Z,1.94
2022-11-08T05:00:59.549Z,1.99
2022-11-08T05:01:59.602Z,2.02
2022-11-08T05:02:59.447Z,2.04
2022-11-08T05:03:59.431Z,1.99
2022-11-08T05:04:59.423Z,1.92
2022-11-08T05:05:59.411Z,1.88
2022-11-08T05:06:59.401Z,1.80
2022-11-08T05:07:59.389Z,1.71
2022-11-08T05:08:59.368Z,1.67
2022-11-08T05:10:02.331Z,1.68
2022-11-08T05:10:59.343Z,1.73
2022-11-08T05:11:59.329Z,1.77
2022-11-08T05:12:59.320Z,1.78
2022-11-08T05:13:59.309Z,1.77
2022-11-08T05:14:59.292Z,1.73
2022-11-08T05:15:59.282Z,1.71
2022-11-08T05:16:59.291Z,1.63
2022-11-08T05:17:59.250Z,1.62
2022-11-08T05:18:59.239Z,1.63
2022-11-08T05:19:59.227Z,1.67
2022-11-08T05:20:59.215Z,1.70
2022-11-08T05:21:59.198Z,1.74
2022-11-08T05:22:59.187Z,1.76
2022-11-08T05:23:59.172Z,1.77
2022-11-08T05:24:59.159Z,1.81
2022-11-08T05:25:59.148Z,1.85
2022-11-08T05:26:59.133Z,1.87
2022-11-08T05:27:59.123Z,1.88
2022-11-08T05:28:59.114Z,1.91
2022-11-08T05:29:59.097Z,1.89
2022-11-08T05:30:59.085Z,1.89
2022-11-08T05:31:59.073Z,1.85
2022-11-08T05:32:59.089Z,1.80
2022-11-08T05:33:59.044Z,1.78
2022-11-08T05:34:59.034Z,1.80
2022-11-08T05:36:02.187Z,1.87
2022-11-08T05:37:00.046Z,1.89
2022-11-08T05:37:58.998Z,1.87
2022-11-08T05:38:58.982Z,1.85
2022-11-08T05:39:58.977Z,1.87
2022-11-08T05:40:58.958Z,1.85
2022-11-08T05:41:58.939Z,1.81
2022-11-08T05:42:58.936Z,1.80
2022-11-08T05:43:58.917Z,1.76
2022-11-08T05:44:58.901Z,1.74
2022-11-08T05:45:58.892Z,1.73
2022-11-08T05:46:58.892Z,1.77
2022-11-08T05:47:58.867Z,1.78
2022-11-08T05:48:58.873Z,1.76
2022-11-08T05:49:58.838Z,1.78
2022-11-08T05:50:58.822Z,1.84
2022-11-08T05:51:58.815Z,1.91
2022-11-08T05:52:58.799Z,1.89
2022-11-08T05:53:58.808Z,1.94
2022-11-08T05:54:58.769Z,1.97
2022-11-08T05:55:58.755Z,2.04
2022-11-08T05:56:58.746Z,2.06
2022-11-08T05:57:58.734Z,2.07
2022-11-08T05:58:58.717Z,2.04
2022-11-08T05:59:58.702Z,2.07
2022-11-08T06:00:58.688Z,2.07
2022-11-08T06:01:58.732Z,2.06
2022-11-08T06:02:58.735Z,2.00
2022-11-08T06:03:58.655Z,1.92
2022-11-08T06:04:58.664Z,1.87
2022-11-08T06:05:58.624Z,1.81
2022-11-08T06:06:58.613Z,1.77
2022-11-08T06:07:58.594Z,1.78
2022-11-08T06:08:58.594Z,1.80
2022-11-08T06:09:58.569Z,1.81
2022-11-08T06:10:58.556Z,1.80
2022-11-08T06:11:58.550Z,1.81
2022-11-08T06:12:58.533Z,1.88
2022-11-08T06:13:58.520Z,1.94
2022-11-08T06:14:58.507Z,1.94
2022-11-08T06:15:58.502Z,1.88
2022-11-08T06:16:58.479Z,1.78
2022-11-08T06:17:58.467Z,1.81
2022-11-08T06:18:58.453Z,1.81
2022-11-08T06:19:58.437Z,1.87
2022-11-08T06:20:58.453Z,1.91
2022-11-08T06:21:58.409Z,1.92
2022-11-08T06:22:58.399Z,1.91
2022-11-08T06:23:58.385Z,1.91
2022-11-08T06:24:58.380Z,1.92
2022-11-08T06:25:58.360Z,1.92
2022-11-08T06:26:58.346Z,1.94
2022-11-08T06:27:58.333Z,1.94
2022-11-08T06:28:58.320Z,1.94
2022-11-08T06:29:58.306Z,1.94
2022-11-08T06:30:58.293Z,2.00
2022-11-08T06:31:58.287Z,2.04
2022-11-08T06:32:58.266Z,2.06
2022-11-08T06:33:58.253Z,2.08
2022-11-08T06:34:58.236Z,2.15
2022-11-08T06:35:58.232Z,2.22
2022-11-08T06:36:58.238Z,2.24
2022-11-08T06:38:01.196Z,2.22
2022-11-08T06:38:58.187Z,2.24
2022-11-08T06:39:58.172Z,2.24
2022-11-08T06:40:58.155Z,2.26
2022-11-08T06:41:58.149Z,2.29
2022-11-08T06:42:58.135Z,2.31
2022-11-08T06:43:58.118Z,2.36
2022-11-08T06:44:58.105Z,2.39
2022-11-08T06:45:58.093Z,2.39
2022-11-08T06:46:58.080Z,2.38
2022-11-08T06:47:58.061Z,2.42
2022-11-08T06:48:58.045Z,2.39
2022-11-08T06:49:58.038Z,2.44
2022-11-08T06:50:58.025Z,2.46
2022-11-08T06:51:58.005Z,2.51
2022-11-08T06:52:58.013Z,2.51
2022-11-08T06:53:57.982Z,2.53
2022-11-08T06:54:57.961Z,2.56
2022-11-08T06:55:57.964Z,2.57
2022-11-08T06:56:57.938Z,2.54
2022-11-08T06:57:57.929Z,2.49
2022-11-08T06:58:57.921Z,2.50
2022-11-08T06:59:57.901Z,2.54
2022-11-08T07:00:57.903Z,2.56
2022-11-08T07:01:57.979Z,2.54
2022-11-08T07:02:58.012Z,2.56
2022-11-08T07:03:57.853Z,2.60
2022-11-08T07:04:57.837Z,2.60
2022-11-08T07:05:57.825Z,2.60
2022-11-08T07:06:57.809Z,2.60
2022-11-08T07:07:57.799Z,2.61
2022-11-08T07:08:57.806Z,2.67
2022-11-08T07:10:02.447Z,2.69
2022-11-08T07:10:58.784Z,2.68
2022-11-08T07:11:57.745Z,2.61
2022-11-08T07:12:57.729Z,2.54
2022-11-08T07:13:57.716Z,2.62
2022-11-08T07:14:57.704Z,2.64
2022-11-08T07:15:57.682Z,2.65
2022-11-08T07:16:57.679Z,2.61
2022-11-08T07:17:57.724Z,2.62
2022-11-08T07:18:57.643Z,2.62
2022-11-08T07:19:57.649Z,2.61
2022-11-08T07:20:57.623Z,2.56
2022-11-08T07:21:57.609Z,2.60
2022-11-08T07:22:57.599Z,2.65
2022-11-08T07:23:57.586Z,2.68
2022-11-08T07:24:57.594Z,2.72
2022-11-08T07:25:57.559Z,2.75
2022-11-08T07:26:57.547Z,2.77
2022-11-08T07:27:57.541Z,2.79
2022-11-08T07:28:57.517Z,2.80
2022-11-08T07:29:57.503Z,2.80
2022-11-08T07:30:57.495Z,2.83
2022-11-08T07:31:57.474Z,2.87
2022-11-08T07:32:57.457Z,2.93
2022-11-08T07:33:57.446Z,3.05
2022-11-08T07:34:57.434Z,3.44
2022-11-08T07:35:57.429Z,4.17
2022-11-08T07:36:57.407Z,5.00
2022-11-08T07:37:57.393Z,5.86
2022-11-08T07:38:59.299Z,6.48
2022-11-08T07:39:57.365Z,7.10
2022-11-08T07:40:57.380Z,7.63
2022-11-08T07:41:57.348Z,8.05
2022-11-08T07:43:11.269Z,8.44
2022-11-08T07:43:58.346Z,8.73
2022-11-08T07:44:57.298Z,8.95
2022-11-08T07:45:57.285Z,9.43
2022-11-08T07:46:57.270Z,9.66
2022-11-08T07:47:57.262Z,9.58
2022-11-08T07:48:57.249Z,9.95
2022-11-08T07:49:57.238Z,10.31
2022-11-08T07:50:57.226Z,10.13
2022-11-08T07:51:57.213Z,9.54
2022-11-08T07:52:57.196Z,8.58
2022-11-08T07:54:02.620Z,8.08
2022-11-08T07:54:57.168Z,7.91
2022-11-08T07:55:57.155Z,7.98
2022-11-08T07:56:57.183Z,8.03
2022-11-08T07:57:57.124Z,7.87
2022-11-08T07:58:57.109Z,7.73
2022-11-08T07:59:57.100Z,7.60
2022-11-08T08:00:57.089Z,7.45
2022-11-08T08:01:57.152Z,7.05
2022-11-08T08:02:57.114Z,6.67
2022-11-08T08:03:57.041Z,6.41
2022-11-08T08:04:57.030Z,6.19
2022-11-08T08:06:01.036Z,6.01
2022-11-08T08:06:57.011Z,5.87
2022-11-08T08:07:56.994Z,5.71
2022-11-08T08:08:56.995Z,5.54
2022-11-08T08:09:56.975Z,5.44
2022-11-08T08:10:56.959Z,5.32
2022-11-08T08:11:56.937Z,5.18
2022-11-08T08:12:56.961Z,5.12
2022-11-08T08:13:56.919Z,5.05
2022-11-08T08:14:56.903Z,4.94
2022-11-08T08:15:56.887Z,4.78
2022-11-08T08:16:56.878Z,4.68
2022-11-08T08:17:56.869Z,4.59
2022-11-08T08:18:56.998Z,4.50
2022-11-08T08:19:56.836Z,4.49
2022-11-08T08:20:56.824Z,4.60
2022-11-08T08:21:56.817Z,4.78
2022-11-08T08:22:56.799Z,4.97
2022-11-08T08:23:56.788Z,4.96
2022-11-08T08:25:00.514Z,4.90
2022-11-08T08:25:56.766Z,4.74
2022-11-08T08:26:56.751Z,4.67
2022-11-08T08:27:56.730Z,4.68
2022-11-08T08:28:56.737Z,4.63
2022-11-08T08:29:56.703Z,4.67
2022-11-08T08:30:56.692Z,4.74
2022-11-08T08:31:56.687Z,4.86
2022-11-08T08:33:22.033Z,4.93
2022-11-08T08:33:57.688Z,5.10
2022-11-08T08:34:56.649Z,5.35
2022-11-08T08:35:56.667Z,5.65
2022-11-08T08:36:56.612Z,5.82
2022-11-08T08:37:56.605Z,6.04
2022-11-08T08:38:56.589Z,6.28
2022-11-08T08:39:56.576Z,6.46
2022-11-08T08:40:56.555Z,6.63
2022-11-08T08:41:56.556Z,6.78
2022-11-08T08:42:56.531Z,6.64
2022-11-08T08:43:56.521Z,6.79
2022-11-08T08:44:56.532Z,7.14
2022-11-08T08:45:56.494Z,7.39
2022-11-08T08:46:56.497Z,7.85
2022-11-08T08:47:56.460Z,8.24
2022-11-08T08:48:56.467Z,8.51
2022-11-08T08:49:56.440Z,8.67
2022-11-08T08:50:56.435Z,8.81
2022-11-08T08:51:56.426Z,8.67
2022-11-08T08:52:56.417Z,8.52
2022-11-08T08:53:56.383Z,8.33
2022-11-08T08:54:56.383Z,8.31
2022-11-08T08:55:56.369Z,8.26
2022-11-08T08:56:56.357Z,8.13
2022-11-08T08:57:56.350Z,7.95
2022-11-08T09:01:57.314Z,7.90
2022-11-08T09:02:56.277Z,7.91
2022-11-08T09:03:56.254Z,7.93
2022-11-08T09:04:56.247Z,7.93
2022-11-08T09:05:56.233Z,8.13
2022-11-08T09:06:56.281Z,8.30
2022-11-08T09:07:56.199Z,8.48
2022-11-08T09:08:56.200Z,9.06
2022-11-08T09:09:56.186Z,9.68
2022-11-08T09:10:56.173Z,10.04
2022-11-08T09:11:56.157Z,9.95
2022-11-08T09:12:56.159Z,9.87
2022-11-08T09:13:56.128Z,9.79
2022-11-08T09:14:56.115Z,9.55
2022-11-08T09:15:56.108Z,9.55
2022-11-08T09:16:56.113Z,9.64
2022-11-08T09:17:56.081Z,9.77
2022-11-08T09:18:56.069Z,9.82
2022-11-08T09:19:57.457Z,9.79
2022-11-08T09:20:56.041Z,9.65
2022-11-08T09:21:56.077Z,9.69
2022-11-08T09:22:56.016Z,9.80
2022-11-08T09:23:55.998Z,9.92
2022-11-08T09:24:55.986Z,10.02
2022-11-08T09:25:56.006Z,10.19
2022-11-08T09:26:55.968Z,10.15
2022-11-08T09:27:55.949Z,10.04
2022-11-08T09:28:55.939Z,9.92
2022-11-08T09:29:55.926Z,9.73
2022-11-08T09:30:55.912Z,9.56
2022-11-08T09:31:55.904Z,9.44
2022-11-08T09:33:03.452Z,9.36
2022-11-08T09:33:56.948Z,9.25
2022-11-08T09:34:55.867Z,9.14
2022-11-08T09:35:55.854Z,9.06
2022-11-08T09:36:55.841Z,8.95
2022-11-08T09:37:55.831Z,8.94
2022-11-08T09:38:55.817Z,8.85
2022-11-08T09:39:55.805Z,8.84
2022-11-08T09:40:55.784Z,8.78
2022-11-08T09:41:55.938Z,8.76
2022-11-08T09:42:55.756Z,8.69
2022-11-08T09:43:55.745Z,8.70
2022-11-08T09:44:55.739Z,8.69
2022-11-08T09:45:55.727Z,8.69
2022-11-08T09:46:55.712Z,8.67
2022-11-08T09:47:55.700Z,8.67
2022-11-08T09:48:55.718Z,8.67
2022-11-08T09:49:55.670Z,8.67
2022-11-08T09:50:55.658Z,8.66
2022-11-08T09:51:55.646Z,8.67
2022-11-08T09:52:55.635Z,8.71
2022-11-08T09:53:55.619Z,8.78
2022-11-08T09:54:55.609Z,8.79
2022-11-08T09:55:55.595Z,8.85
2022-11-08T09:56:55.612Z,8.87
2022-11-08T09:57:55.571Z,8.91
2022-11-08T09:58:55.570Z,8.94
2022-11-08T09:59:55.551Z,8.92
2022-11-08T10:00:55.539Z,8.94
2022-11-08T10:01:55.550Z,8.99
2022-11-08T10:02:55.513Z,9.04
2022-11-08T10:03:55.492Z,9.10
2022-11-08T10:04:55.498Z,9.14
2022-11-08T10:05:55.479Z,9.19
2022-11-08T10:06:58.144Z,9.23
2022-11-08T10:07:56.488Z,9.29
2022-11-08T10:08:55.441Z,9.29
2022-11-08T10:09:55.419Z,9.36
2022-11-08T10:10:55.408Z,9.39
2022-11-08T10:11:55.392Z,9.40
2022-11-08T10:12:55.380Z,9.43
2022-11-08T10:13:55.373Z,9.47
2022-11-08T10:14:55.354Z,9.50
2022-11-08T10:15:55.337Z,9.56
2022-11-08T10:16:55.340Z,9.58
2022-11-08T10:17:55.323Z,9.64
2022-11-08T10:18:55.301Z,9.66
2022-11-08T10:19:55.289Z,9.69
2022-11-08T10:20:55.305Z,9.72
2022-11-08T10:21:55.263Z,9.79
2022-11-08T10:22:55.251Z,9.84
2022-11-08T10:23:55.235Z,9.94
2022-11-08T10:24:55.226Z,9.99
2022-11-08T10:25:55.210Z,10.07
2022-11-08T10:26:55.197Z,10.10
2022-11-08T10:27:55.193Z,10.12
2022-11-08T10:28:55.185Z,10.16
2022-11-08T10:29:55.161Z,10.22
2022-11-08T10:30:55.138Z,10.26
2022-11-08T10:31:55.137Z,10.30
2022-11-08T10:32:55.119Z,10.33
2022-11-08T10:33:55.120Z,10.40
2022-11-08T10:34:55.102Z,10.49
2022-11-08T10:35:59.185Z,10.61
2022-11-08T10:36:56.139Z,10.69
2022-11-08T10:37:55.059Z,10.75
2022-11-08T10:38:55.046Z,10.79
2022-11-08T10:39:55.033Z,10.84
2022-11-08T10:40:55.021Z,10.90
2022-11-08T10:41:55.015Z,10.97
2022-11-08T10:42:54.995Z,11.04
2022-11-08T10:43:54.986Z,11.07
2022-11-08T10:44:54.968Z,11.12
2022-11-08T10:45:54.952Z,11.05
2022-11-08T10:46:54.942Z,10.97
2022-11-08T10:47:54.931Z,10.99
2022-11-08T10:48:54.915Z,11.00
2022-11-08T10:49:58.266Z,11.00
2022-11-08T10:50:55.924Z,11.05
2022-11-08T10:51:54.884Z,11.10
2022-11-08T10:52:54.898Z,11.07
2022-11-08T10:53:54.900Z,11.07
2022-11-08T10:54:54.850Z,11.14
2022-11-08T10:55:54.823Z,11.17
2022-11-08T10:56:54.822Z,11.22
2022-11-08T10:57:54.812Z,11.19
2022-11-08T10:58:54.790Z,11.23
2022-11-08T10:59:54.789Z,11.29
2022-11-08T11:00:54.766Z,11.32
2022-11-08T11:01:54.837Z,11.33
2022-11-08T11:02:54.742Z,11.25
2022-11-08T11:03:54.721Z,11.26
2022-11-08T11:04:54.712Z,11.30
2022-11-08T11:05:54.704Z,11.36
2022-11-08T11:06:54.712Z,11.33
2022-11-08T11:07:59.060Z,11.35
2022-11-08T11:08:55.709Z,11.36
2022-11-08T11:09:54.649Z,11.40
2022-11-08T11:10:54.632Z,11.41
2022-11-08T11:11:54.627Z,11.37
2022-11-08T11:12:54.605Z,11.43
2022-11-08T11:13:54.599Z,11.44
2022-11-08T11:14:54.578Z,11.37
2022-11-08T11:15:54.579Z,11.37
2022-11-08T11:16:54.567Z,11.32
2022-11-08T11:17:54.552Z,11.32
2022-11-08T11:18:54.533Z,11.30
2022-11-08T11:19:54.521Z,11.32
2022-11-08T11:20:54.509Z,11.29
2022-11-08T11:21:54.497Z,11.27
2022-11-08T11:22:54.481Z,11.26
2022-11-08T11:23:54.471Z,11.30
2022-11-08T11:24:54.482Z,11.33
2022-11-08T11:25:54.452Z,11.37
2022-11-08T11:26:54.434Z,11.43
2022-11-08T11:27:54.424Z,11.44
2022-11-08T11:28:54.449Z,11.47
2022-11-08T11:29:54.393Z,11.45
2022-11-08T11:30:54.388Z,11.47
2022-11-08T11:31:54.366Z,11.45
2022-11-08T11:32:54.406Z,11.44
2022-11-08T11:33:54.343Z,11.44
2022-11-08T11:34:54.328Z,11.48
2022-11-08T11:35:54.317Z,11.47
2022-11-08T11:36:54.304Z,11.47
2022-11-08T11:37:54.307Z,11.43
2022-11-08T11:38:54.280Z,11.43
2022-11-08T11:39:54.269Z,11.44
2022-11-08T11:40:54.307Z,11.37
2022-11-08T11:41:54.240Z,11.35
2022-11-08T11:42:54.227Z,11.36
2022-11-08T11:43:54.215Z,11.40
2022-11-08T11:44:54.201Z,11.41
2022-11-08T11:45:54.183Z,11.41
2022-11-08T11:46:54.171Z,11.44
2022-11-08T11:47:54.163Z,11.47
2022-11-08T11:48:54.146Z,11.52
2022-11-08T11:49:54.132Z,11.59
2022-11-08T11:50:54.212Z,11.59
2022-11-08T11:51:54.106Z,11.59
2022-11-08T11:52:54.098Z,11.59
2022-11-08T11:53:54.079Z,11.59
2022-11-08T11:54:54.067Z,11.65
2022-11-08T11:55:54.056Z,11.69
2022-11-08T11:56:54.067Z,11.80
2022-11-08T11:57:54.032Z,11.86
2022-11-08T11:58:54.018Z,11.94
2022-11-08T11:59:54.008Z,12.03
2022-11-08T12:00:53.989Z,12.04
2022-11-08T12:01:54.143Z,12.10
2022-11-08T12:02:53.964Z,12.17
2022-11-08T12:03:53.957Z,12.25
2022-11-08T12:04:53.938Z,12.27
2022-11-08T12:05:53.932Z,12.29
2022-11-08T12:06:54.068Z,12.21
2022-11-08T12:07:53.913Z,12.22
2022-11-08T12:08:53.889Z,12.24
2022-11-08T12:09:53.878Z,12.27
2022-11-08T12:10:53.861Z,12.28
2022-11-08T12:11:53.849Z,12.32
2022-11-08T12:12:53.855Z,12.35
2022-11-08T12:13:54.676Z,12.35
2022-11-08T12:14:53.813Z,12.36
2022-11-08T12:15:53.800Z,12.37
2022-11-08T12:16:53.784Z,12.29
2022-11-08T12:17:53.773Z,12.21
2022-11-08T12:18:53.760Z,12.13
2022-11-08T12:19:53.749Z,12.04
2022-11-08T12:20:53.732Z,11.95
2022-11-08T12:21:53.722Z,11.91
2022-11-08T12:22:53.705Z,11.88
2022-11-08T12:23:53.707Z,11.90
2022-11-08T12:24:53.680Z,11.87
2022-11-08T12:25:53.671Z,11.83
2022-11-08T12:26:53.660Z,11.77
2022-11-08T12:27:53.642Z,11.75
2022-11-08T12:28:53.656Z,11.75
2022-11-08T12:29:53.620Z,11.77
2022-11-08T12:30:53.610Z,11.75
2022-11-08T12:31:53.603Z,11.70
2022-11-08T12:32:53.597Z,11.68
2022-11-08T12:33:57.728Z,11.63
2022-11-08T12:34:53.562Z,11.63
2022-11-08T12:35:53.539Z,11.59
2022-11-08T12:36:53.528Z,11.59
2022-11-08T12:37:53.523Z,11.59
2022-11-08T12:38:53.501Z,11.57
2022-11-08T12:39:53.490Z,11.59
2022-11-08T12:40:53.474Z,11.59
2022-11-08T12:41:53.464Z,11.60
2022-11-08T12:42:53.451Z,11.62
2022-11-08T12:43:53.441Z,11.65
2022-11-08T12:44:53.442Z,11.65
2022-11-08T12:45:53.411Z,11.69
2022-11-08T12:46:53.401Z,11.65
2022-11-08T12:47:53.393Z,11.57
2022-11-08T12:48:53.371Z,11.54
2022-11-08T12:49:53.359Z,11.54
2022-11-08T12:50:55.235Z,11.55
2022-11-08T12:51:53.355Z,11.52
2022-11-08T12:52:53.325Z,11.50
2022-11-08T12:53:53.311Z,11.55
2022-11-08T12:54:53.300Z,11.57
2022-11-08T12:55:53.278Z,11.55
2022-11-08T12:56:53.269Z,11.59
2022-11-08T12:57:53.258Z,11.60
2022-11-08T12:58:53.255Z,11.63
2022-11-08T12:59:53.237Z,11.65
2022-11-08T13:00:53.359Z,11.69
2022-11-08T13:01:53.233Z,11.68
2022-11-08T13:02:53.188Z,11.60
2022-11-08T13:03:53.184Z,11.59
2022-11-08T13:04:53.195Z,11.57
2022-11-08T13:05:53.153Z,11.57
2022-11-08T13:06:53.239Z,11.62
2022-11-08T13:07:53.162Z,11.63
2022-11-08T13:08:53.108Z,11.65
2022-11-08T13:09:53.102Z,11.63
2022-11-08T13:10:53.092Z,11.62
2022-11-08T13:11:53.070Z,11.62
2022-11-08T13:12:53.068Z,11.62
2022-11-08T13:13:53.064Z,11.62
2022-11-08T13:14:53.036Z,11.60